Time;durP1;ratioP1;P1;durP2;ratioP2;P2;SDS_P1;SDS_P2;PMS_P1;PMS_P2;Temp;Humidity;BMP_temperature;BMP_pressure;BME280_temperature;BME280_humidity;BME280_pressure;Samples;Min_cycle;Max_cycle;Signal;HPM_P1;HPM_P2
2022/04/16 00:03:23;;;;;;;12.43;7.05;;;;;;;;;;10489430;28;20031;-70
2022/04/16 00:08:24;;;;;;;16.75;6.55;;;;;;;;;;10471372;28;20021;-71
2022/04/16 00:13:24;;;;;;;12.20;7.07;;;;;;;;;;10454725;28;20510;-77
2022/04/16 00:18:25;;;;;;;17.23;6.87;;;;;;;;;;10470515;28;20024;-72
2022/04/16 00:23:26;;;;;;;12.85;5.30;;;;;;;;;;10470918;28;20557;-71
2022/04/16 00:28:27;;;;;;;12.65;6.05;;;;;;;;;;10488420;28;20029;-74
2022/04/16 00:33:27;;;;;;;14.30;6.38;;;;;;;;;;10470865;28;20029;-72
2022/04/16 00:38:28;;;;;;;15.20;6.70;;;;;;;;;;10470404;28;20079;-70
2022/04/16 00:43:29;;;;;;;13.48;6.70;;;;;;;;;;10487931;28;20062;-75
2022/04/16 00:48:29;;;;;;;18.77;6.07;;;;;;;;;;10470139;28;20055;-72
2022/04/16 00:53:30;;;;;;;7.30;4.40;;;;;;;;;;10487562;28;20063;-75
2022/04/16 00:58:30;;;;;;;12.53;5.20;;;;;;;;;;10470202;28;20024;-75
2022/04/16 01:03:30;;;;;;;8.95;5.38;;;;;;;;;;10469813;28;20289;-71
2022/04/16 01:08:31;;;;;;;11.02;5.13;;;;;;;;;;10469160;28;20488;-71
2022/04/16 01:13:31;;;;;;;12.57;4.93;;;;;;;;;;10469188;28;20112;-73
2022/04/16 01:18:32;;;;;;;12.55;5.47;;;;;;;;;;10487502;28;20028;-71
2022/04/16 01:23:32;;;;;;;9.27;4.75;;;;;;;;;;10468467;28;20485;-69
2022/04/16 01:28:32;;;;;;;12.93;5.68;;;;;;;;;;10468678;28;20067;-75
2022/04/16 01:33:33;;;;;;;11.02;5.45;;;;;;;;;;10468254;28;20016;-76
2022/04/16 01:38:34;;;;;;;8.27;5.60;;;;;;;;;;10468219;28;20051;-72
2022/04/16 01:43:34;;;;;;;11.70;5.10;;;;;;;;;;10485566;28;20686;-76
2022/04/16 01:48:34;;;;;;;11.93;4.63;;;;;;;;;;10486333;28;20542;-71
2022/04/16 01:53:35;;;;;;;16.50;5.07;;;;;;;;;;10450905;28;20024;-72
2022/04/16 01:58:38;;;;;;;9.47;5.30;;;;;;;;;;10451050;28;20115;-71
2022/04/16 02:03:38;;;;;;;11.40;5.65;;;;;;;;;;10451822;28;20020;-78
2022/04/16 02:08:39;;;;;;;10.52;6.00;;;;;;;;;;10467322;28;20033;-72
2022/04/16 02:13:39;;;;;;;15.50;6.78;;;;;;;;;;10485392;28;20028;-75
2022/04/16 02:18:39;;;;;;;12.23;8.07;;;;;;;;;;10467771;28;20024;-72
2022/04/16 02:23:39;;;;;;;13.43;8.90;;;;;;;;;;10467516;28;20506;-72
2022/04/16 02:28:40;;;;;;;17.88;7.95;;;;;;;;;;10465632;28;20508;-69
2022/04/16 02:33:40;;;;;;;15.93;8.40;;;;;;;;;;10465747;28;20450;-71
2022/04/16 02:38:41;;;;;;;17.35;8.27;;;;;;;;;;10466161;28;20553;-72
2022/04/16 02:43:41;;;;;;;19.20;7.97;;;;;;;;;;10468469;28;20017;-70
2022/04/16 02:48:41;;;;;;;21.98;8.75;;;;;;;;;;10474220;28;20024;-71
2022/04/16 02:53:42;;;;;;;20.73;9.07;;;;;;;;;;10473183;28;20021;-75
2022/04/16 02:58:42;;;;;;;16.48;8.30;;;;;;;;;;10472980;28;20712;-71
2022/04/16 03:03:42;;;;;;;13.30;6.50;;;;;;;;;;10472964;28;20454;-72
2022/04/16 03:08:43;;;;;;;13.57;8.30;;;;;;;;;;10472675;28;20469;-71
2022/04/16 03:13:43;;;;;;;11.20;7.40;;;;;;;;;;10472515;28;20021;-71
2022/04/16 03:18:43;;;;;;;16.83;7.70;;;;;;;;;;10472498;28;20507;-72
2022/04/16 03:23:43;;;;;;;18.53;7.73;;;;;;;;;;10468980;28;20013;-75
2022/04/16 03:28:44;;;;;;;11.13;6.07;;;;;;;;;;10471876;28;20114;-74
2022/04/16 03:33:44;;;;;;;24.00;7.75;;;;;;;;;;10471709;28;20016;-75
2022/04/16 03:38:45;;;;;;;23.98;8.13;;;;;;;;;;10471988;28;20031;-72
2022/04/16 03:43:45;;;;;;;19.80;7.28;;;;;;;;;;10471368;28;20534;-71
2022/04/16 03:48:45;;;;;;;12.70;6.75;;;;;;;;;;10471840;28;20047;-71
2022/04/16 03:53:45;;;;;;;16.23;6.53;;;;;;;;;;10470374;28;20115;-71
2022/04/16 04:04:18;;;;;;;15.25;6.60;;;;;;;;;;10462956;28;20028;-71
2022/04/16 04:09:19;;;;;;;15.45;6.95;;;;;;;;;;10470581;28;20021;-74
2022/04/16 04:14:19;;;;;;;18.67;7.90;;;;;;;;;;10470143;28;20020;-70
2022/04/16 04:19:19;;;;;;;27.67;8.68;;;;;;;;;;10454453;28;20498;-70
2022/04/16 04:24:20;;;;;;;22.48;8.35;;;;;;;;;;10471292;28;20407;-71
2022/04/16 04:29:20;;;;;;;20.98;7.90;;;;;;;;;;10488844;28;20028;-72
2022/04/16 04:34:20;;;;;;;22.35;7.65;;;;;;;;;;10470464;28;20052;-71
2022/04/16 04:39:20;;;;;;;18.73;7.07;;;;;;;;;;10470841;28;20024;-75
2022/04/16 04:44:21;;;;;;;29.55;9.43;;;;;;;;;;10470159;28;20185;-71
2022/04/16 04:49:21;;;;;;;17.45;7.60;;;;;;;;;;10469865;28;20036;-71
2022/04/16 04:54:21;;;;;;;15.20;6.27;;;;;;;;;;10487860;28;20029;-75
2022/04/16 04:59:22;;;;;;;11.90;5.57;;;;;;;;;;10469660;28;20029;-76
2022/04/16 05:04:22;;;;;;;15.77;6.13;;;;;;;;;;10468396;28;20085;-71
2022/04/16 05:09:23;;;;;;;16.92;7.15;;;;;;;;;;10452273;28;20424;-78
2022/04/16 05:14:23;;;;;;;12.98;5.30;;;;;;;;;;10469059;28;20476;-70
2022/04/16 05:19:24;;;;;;;17.00;6.03;;;;;;;;;;10447157;28;20579;-72
2022/04/16 05:24:24;;;;;;;13.20;5.60;;;;;;;;;;10444964;28;20028;-73
2022/04/16 05:29:24;;;;;;;7.85;4.70;;;;;;;;;;10464832;28;20416;-74
2022/04/16 05:34:25;;;;;;;10.35;4.97;;;;;;;;;;10442462;28;20021;-75
2022/04/16 05:39:25;;;;;;;13.75;5.75;;;;;;;;;;10449210;28;20104;-70
2022/04/16 05:44:25;;;;;;;11.52;6.05;;;;;;;;;;10444990;28;20049;-72
2022/04/16 05:49:25;;;;;;;11.23;5.93;;;;;;;;;;10437573;28;20036;-75
2022/04/16 05:54:26;;;;;;;12.35;5.85;;;;;;;;;;10436573;28;20016;-74
2022/04/16 05:59:26;;;;;;;15.38;6.22;;;;;;;;;;10426883;28;20029;-74
2022/04/16 06:04:27;;;;;;;22.33;7.53;;;;;;;;;;10419249;28;20048;-71
2022/04/16 06:09:28;;;;;;;17.42;8.55;;;;;;;;;;10442461;28;20936;-72
2022/04/16 06:14:28;;;;;;;18.38;6.82;;;;;;;;;;10444074;28;20024;-74
2022/04/16 06:19:28;;;;;;;35.65;9.82;;;;;;;;;;10449297;28;20033;-76
2022/04/16 06:24:28;;;;;;;23.50;8.13;;;;;;;;;;10437978;28;20111;-79
2022/04/16 06:29:29;;;;;;;28.97;8.43;;;;;;;;;;10434807;28;20032;-72
2022/04/16 06:34:29;;;;;;;13.80;4.80;;;;;;;;;;10457991;28;20024;-75
2022/04/16 06:39:29;;;;;;;8.63;4.90;;;;;;;;;;10455989;28;20381;-69
2022/04/16 06:44:31;;;;;;;8.13;4.75;;;;;;;;;;10432421;28;20041;-70
2022/04/16 06:49:32;;;;;;;10.65;3.97;;;;;;;;;;10450497;28;20068;-70
2022/04/16 06:54:32;;;;;;;10.30;3.90;;;;;;;;;;10432550;28;20056;-70
2022/04/16 06:59:32;;;;;;;10.68;4.78;;;;;;;;;;10457381;28;20115;-74
2022/04/16 07:04:33;;;;;;;12.93;4.30;;;;;;;;;;10459202;28;20032;-72
2022/04/16 07:09:38;;;;;;;19.10;4.50;;;;;;;;;;10439798;28;20059;-73
2022/04/16 07:14:38;;;;;;;11.43;4.35;;;;;;;;;;10455888;28;20094;-72
2022/04/16 07:19:39;;;;;;;13.27;4.70;;;;;;;;;;10467659;28;20036;-72
2022/04/16 07:24:42;;;;;;;10.40;4.60;;;;;;;;;;10458850;28;20523;-71
2022/04/16 07:29:43;;;;;;;10.65;4.25;;;;;;;;;;10452744;28;20103;-72
2022/04/16 07:34:43;;;;;;;8.48;5.28;;;;;;;;;;10459925;28;20021;-71
2022/04/16 07:39:43;;;;;;;16.52;6.03;;;;;;;;;;10458268;28;20359;-71
2022/04/16 07:44:44;;;;;;;10.73;5.10;;;;;;;;;;10458150;28;20056;-71
2022/04/16 07:49:44;;;;;;;15.75;6.90;;;;;;;;;;10453413;28;20175;-72
2022/04/16 07:54:44;;;;;;;11.07;5.10;;;;;;;;;;10467748;28;20033;-73
2022/04/16 07:59:45;;;;;;;11.65;4.32;;;;;;;;;;10459634;28;20055;-71
2022/04/16 08:04:45;;;;;;;10.90;5.30;;;;;;;;;;10457148;28;20032;-77
2022/04/16 08:09:45;;;;;;;13.95;4.75;;;;;;;;;;10459238;28;20025;-70
2022/04/16 08:14:46;;;;;;;11.38;4.55;;;;;;;;;;10458902;28;20024;-71
2022/04/16 08:19:46;;;;;;;17.20;5.07;;;;;;;;;;10450038;28;20039;-73
2022/04/16 08:30:10;;;;;;;11.40;4.70;;;;;;;;;;10469277;28;20527;-77
2022/04/16 08:35:11;;;;;;;14.20;5.13;;;;;;;;;;10450233;28;20025;-71
2022/04/16 08:40:12;;;;;;;10.32;5.68;;;;;;;;;;10458308;28;20032;-71
2022/04/16 08:45:13;;;;;;;17.38;5.40;;;;;;;;;;10431328;28;20494;-73
2022/04/16 08:50:13;;;;;;;13.73;4.67;;;;;;;;;;10466417;28;20029;-75
2022/04/16 08:55:14;;;;;;;9.35;3.80;;;;;;;;;;10468253;28;20412;-75
2022/04/16 09:00:14;;;;;;;13.32;4.00;;;;;;;;;;10436661;28;20567;-77
2022/04/16 09:05:17;;;;;;;8.77;3.83;;;;;;;;;;10454756;28;20085;-74
2022/04/16 09:10:18;;;;;;;19.75;4.20;;;;;;;;;;10448548;28;20416;-75
2022/04/16 09:15:18;;;;;;;11.05;3.97;;;;;;;;;;10449413;28;20114;-72
2022/04/16 09:20:19;;;;;;;9.75;5.18;;;;;;;;;;10456959;28;20020;-71
2022/04/16 09:25:19;;;;;;;10.00;4.22;;;;;;;;;;10465176;28;20025;-72
2022/04/16 09:30:23;;;;;;;9.40;4.70;;;;;;;;;;10454407;28;20478;-70
2022/04/16 09:35:28;;;;;;;10.07;5.30;;;;;;;;;;10454133;28;20028;-73
2022/04/16 09:40:29;;;;;;;7.95;4.93;;;;;;;;;;10456034;28;20068;-71
2022/04/16 09:45:30;;;;;;;13.48;5.05;;;;;;;;;;10454220;28;20052;-72
2022/04/16 09:50:30;;;;;;;8.05;4.80;;;;;;;;;;10456627;28;20051;-71
2022/04/16 09:55:31;;;;;;;9.88;3.85;;;;;;;;;;10466110;28;20111;-73
2022/04/16 10:00:34;;;;;;;7.57;4.10;;;;;;;;;;10447267;28;20526;-72
2022/04/16 10:05:34;;;;;;;7.32;4.15;;;;;;;;;;10455991;28;20025;-72
2022/04/16 10:10:41;;;;;;;9.43;4.30;;;;;;;;;;10450104;28;20035;-71
2022/04/16 10:15:57;;;;;;;11.95;5.07;;;;;;;;;;10453511;28;20021;-72
2022/04/16 10:20:58;;;;;;;8.48;4.03;;;;;;;;;;10462683;28;20033;-72
2022/04/16 10:26:13;;;;;;;8.10;4.00;;;;;;;;;;10454597;28;20020;-75
2022/04/16 10:31:20;;;;;;;5.18;3.47;;;;;;;;;;10446545;28;20040;-72
2022/04/16 10:36:24;;;;;;;6.95;3.90;;;;;;;;;;10447793;28;20050;-73
2022/04/16 10:41:25;;;;;;;9.60;4.00;;;;;;;;;;10454636;28;20044;-73
2022/04/16 10:46:45;;;;;;;8.30;4.15;;;;;;;;;;10455152;28;20056;-71
2022/04/16 10:51:46;;;;;;;8.27;3.90;;;;;;;;;;10454757;28;20526;-75
2022/04/16 10:56:52;;;;;;;10.18;3.90;;;;;;;;;;10471387;28;20032;-71
2022/04/16 11:01:55;;;;;;;8.68;4.40;;;;;;;;;;10466052;28;20102;-77
2022/04/16 11:06:57;;;;;;;12.20;4.95;;;;;;;;;;10431495;28;20360;-72
2022/04/16 11:11:58;;;;;;;6.88;3.70;;;;;;;;;;10432959;28;20048;-79
2022/04/16 11:17:02;;;;;;;8.65;3.40;;;;;;;;;;10432385;28;20121;-78
2022/04/16 11:22:02;;;;;;;11.23;3.97;;;;;;;;;;10449737;28;20052;-72
2022/04/16 11:37:40;;;;;;;7.53;4.57;;;;;;;;;;10490038;28;20444;-75
2022/04/16 11:42:44;;;;;;;8.02;3.95;;;;;;;;;;10469030;28;20021;-76
2022/04/16 11:47:48;;;;;;;6.18;4.05;;;;;;;;;;10457221;28;20052;-74
2022/04/16 11:52:49;;;;;;;6.97;3.88;;;;;;;;;;10448406;28;20503;-78
2022/04/16 11:57:54;;;;;;;10.50;5.15;;;;;;;;;;10461339;28;20154;-74
2022/04/16 12:02:55;;;;;;;9.55;4.10;;;;;;;;;;10452677;28;20547;-72
2022/04/16 12:07:55;;;;;;;6.47;3.65;;;;;;;;;;10467330;28;20115;-71
2022/04/16 12:12:56;;;;;;;8.93;3.60;;;;;;;;;;10452608;28;20017;-71
2022/04/16 12:17:57;;;;;;;15.20;4.50;;;;;;;;;;10456177;28;20025;-72
2022/04/16 12:23:02;;;;;;;8.80;3.05;;;;;;;;;;10450298;28;20024;-73
2022/04/16 12:28:03;;;;;;;3.85;3.15;;;;;;;;;;10455705;28;20020;-71
2022/04/16 12:33:04;;;;;;;9.82;4.18;;;;;;;;;;10458129;28;20145;-75
2022/04/16 12:38:05;;;;;;;6.80;3.85;;;;;;;;;;10448768;28;20029;-72
2022/04/16 12:43:05;;;;;;;11.80;3.72;;;;;;;;;;10457948;28;20062;-72
2022/04/16 12:48:06;;;;;;;8.00;3.40;;;;;;;;;;10456732;28;20049;-71
2022/04/16 12:53:07;;;;;;;10.73;3.47;;;;;;;;;;10454643;28;20048;-72
2022/04/16 12:58:08;;;;;;;11.00;3.75;;;;;;;;;;10448441;28;20050;-71
2022/04/16 13:03:08;;;;;;;7.93;3.40;;;;;;;;;;10457317;28;20035;-72
2022/04/16 13:08:08;;;;;;;5.45;3.30;;;;;;;;;;10431349;28;20032;-71
2022/04/16 13:13:09;;;;;;;7.90;3.53;;;;;;;;;;10457838;28;20032;-71
2022/04/16 13:18:09;;;;;;;7.22;3.63;;;;;;;;;;10459020;28;20317;-71
2022/04/16 13:23:09;;;;;;;10.75;3.55;;;;;;;;;;10447787;28;20086;-72
2022/04/16 13:28:10;;;;;;;8.60;3.70;;;;;;;;;;10447743;28;20033;-72
2022/04/16 13:33:10;;;;;;;7.13;3.67;;;;;;;;;;10444210;28;20111;-71
2022/04/16 13:38:10;;;;;;;8.07;3.38;;;;;;;;;;10453618;28;20051;-71
2022/04/16 13:43:11;;;;;;;7.60;3.72;;;;;;;;;;10447247;28;20025;-72
2022/04/16 13:48:11;;;;;;;6.68;3.22;;;;;;;;;;10451168;28;20060;-72
2022/04/16 13:53:11;;;;;;;12.63;3.20;;;;;;;;;;10453574;28;20151;-72
2022/04/16 13:58:12;;;;;;;7.65;3.63;;;;;;;;;;10452966;28;20031;-72
2022/04/16 14:03:12;;;;;;;10.73;4.18;;;;;;;;;;10441858;28;20510;-73
2022/04/16 14:08:13;;;;;;;8.80;3.35;;;;;;;;;;10454674;28;20082;-73
2022/04/16 14:13:14;;;;;;;5.72;2.95;;;;;;;;;;10440313;28;20047;-71
2022/04/16 14:18:14;;;;;;;8.50;2.55;;;;;;;;;;10446985;28;20477;-73
2022/04/16 14:23:15;;;;;;;4.13;2.78;;;;;;;;;;10463922;28;20029;-74
2022/04/16 14:28:15;;;;;;;3.30;2.13;;;;;;;;;;10449506;28;20546;-75
2022/04/16 14:33:15;;;;;;;6.57;3.57;;;;;;;;;;10463356;28;20029;-72
2022/04/16 14:38:18;;;;;;;5.03;2.53;;;;;;;;;;10455257;28;20069;-71
2022/04/16 14:43:18;;;;;;;4.30;2.00;;;;;;;;;;10470499;28;20068;-72
2022/04/16 14:48:19;;;;;;;4.67;2.30;;;;;;;;;;10463162;28;20131;-74
2022/04/16 14:53:19;;;;;;;7.03;1.95;;;;;;;;;;10462084;28;20104;-70
2022/04/16 14:58:19;;;;;;;10.85;2.28;;;;;;;;;;10459856;28;20025;-70
2022/04/16 15:03:19;;;;;;;6.67;2.50;;;;;;;;;;10472175;28;20048;-70
2022/04/16 15:08:20;;;;;;;4.80;2.40;;;;;;;;;;10460876;28;20764;-70
2022/04/16 15:13:20;;;;;;;6.90;3.25;;;;;;;;;;10458808;28;20601;-69
2022/04/16 15:18:20;;;;;;;6.10;3.53;;;;;;;;;;10459600;28;20093;-69
2022/04/16 15:23:20;;;;;;;5.97;2.67;;;;;;;;;;10448251;28;20023;-69
2022/04/16 15:28:21;;;;;;;4.97;2.97;;;;;;;;;;10460567;28;20036;-70
2022/04/16 15:33:21;;;;;;;6.70;2.75;;;;;;;;;;10451962;28;20083;-74
2022/04/16 15:38:22;;;;;;;8.77;3.77;;;;;;;;;;10452410;28;20021;-72
2022/04/16 15:43:23;;;;;;;10.75;4.78;;;;;;;;;;10461295;28;20025;-72
2022/04/16 15:48:23;;;;;;;8.27;4.23;;;;;;;;;;10451585;28;20040;-72
2022/04/16 15:53:23;;;;;;;8.68;4.55;;;;;;;;;;10460623;28;20454;-73
2022/04/16 15:58:23;;;;;;;7.43;4.22;;;;;;;;;;10460420;28;20028;-73
2022/04/16 16:03:24;;;;;;;7.00;4.40;;;;;;;;;;10455510;28;20036;-72
2022/04/16 16:08:24;;;;;;;7.78;5.18;;;;;;;;;;10468151;28;20064;-73
2022/04/16 16:13:24;;;;;;;8.07;5.22;;;;;;;;;;10449311;28;20020;-73
2022/04/16 16:18:25;;;;;;;8.02;4.47;;;;;;;;;;10455229;28;20036;-73
2022/04/16 16:23:27;;;;;;;20.40;6.10;;;;;;;;;;10433514;28;20036;-73
2022/04/16 16:28:27;;;;;;;8.40;5.38;;;;;;;;;;10468708;28;20054;-72
2022/04/16 16:33:28;;;;;;;12.15;6.00;;;;;;;;;;10453772;28;20066;-72
2022/04/16 16:38:29;;;;;;;6.93;5.80;;;;;;;;;;10441507;28;20032;-72
2022/04/16 16:43:29;;;;;;;12.70;5.95;;;;;;;;;;10457941;28;20045;-73
2022/04/16 16:48:29;;;;;;;12.45;5.05;;;;;;;;;;10456041;28;20041;-73
2022/04/16 16:53:30;;;;;;;11.65;7.50;;;;;;;;;;10457281;28;20025;-72
2022/04/16 16:58:31;;;;;;;11.63;5.27;;;;;;;;;;10456696;28;20033;-73
2022/04/16 17:08:51;;;;;;;9.10;5.95;;;;;;;;;;10462233;28;20420;-71
2022/04/16 17:13:52;;;;;;;8.80;6.00;;;;;;;;;;10448931;28;20029;-72
2022/04/16 17:18:52;;;;;;;21.38;6.13;;;;;;;;;;10452790;28;20044;-73
2022/04/16 17:23:52;;;;;;;11.63;6.83;;;;;;;;;;10448948;28;20384;-72
2022/04/16 17:28:52;;;;;;;15.50;6.43;;;;;;;;;;10454904;28;20443;-69
2022/04/16 17:33:53;;;;;;;13.33;6.83;;;;;;;;;;10457832;28;20036;-71
2022/04/16 17:38:54;;;;;;;12.60;6.78;;;;;;;;;;10464509;28;20531;-71
2022/04/16 17:43:54;;;;;;;12.38;6.88;;;;;;;;;;10454000;28;20037;-70
2022/04/16 17:48:54;;;;;;;9.15;6.50;;;;;;;;;;10465943;28;20033;-71
2022/04/16 17:53:55;;;;;;;13.27;7.50;;;;;;;;;;10456077;28;20028;-70
2022/04/16 17:58:55;;;;;;;11.70;6.53;;;;;;;;;;10456373;28;20267;-70
2022/04/16 18:03:55;;;;;;;9.35;7.40;;;;;;;;;;10453819;28;20552;-71
2022/04/16 18:08:55;;;;;;;9.38;6.75;;;;;;;;;;10451021;28;20094;-70
2022/04/16 18:13:56;;;;;;;10.27;7.15;;;;;;;;;;10426420;28;20488;-72
2022/04/16 18:18:56;;;;;;;9.50;5.97;;;;;;;;;;10429373;28;20542;-70
2022/04/16 18:23:57;;;;;;;8.13;6.15;;;;;;;;;;10430929;28;20550;-69
2022/04/16 18:28:57;;;;;;;9.83;6.97;;;;;;;;;;10425116;28;20037;-70
2022/04/16 18:33:58;;;;;;;12.67;7.63;;;;;;;;;;10430656;28;20025;-71
2022/04/16 18:38:59;;;;;;;11.90;7.75;;;;;;;;;;10449262;28;20037;-71
2022/04/16 18:44:00;;;;;;;13.98;7.13;;;;;;;;;;10428715;28;20668;-70
2022/04/16 18:49:04;;;;;;;13.98;7.90;;;;;;;;;;10438562;28;20033;-71
2022/04/16 18:54:05;;;;;;;15.65;8.88;;;;;;;;;;10430530;28;20021;-71
2022/04/16 18:59:05;;;;;;;13.68;9.02;;;;;;;;;;10424275;28;20041;-70
2022/04/16 19:09:26;;;;;;;12.10;9.38;;;;;;;;;;10442541;28;20037;-74
2022/04/16 19:14:26;;;;;;;19.63;10.70;;;;;;;;;;10443538;28;20025;-70
2022/04/16 19:19:27;;;;;;;13.52;9.55;;;;;;;;;;10430846;28;20420;-69
2022/04/16 19:24:27;;;;;;;16.63;10.27;;;;;;;;;;10443074;28;20270;-70
2022/04/16 19:29:28;;;;;;;15.70;11.05;;;;;;;;;;10441903;28;20443;-70
2022/04/16 19:34:29;;;;;;;17.50;10.73;;;;;;;;;;10449209;28;20621;-70
2022/04/16 19:39:29;;;;;;;18.10;12.50;;;;;;;;;;10430808;28;20028;-70
2022/04/16 19:44:29;;;;;;;20.17;11.50;;;;;;;;;;10434345;28;20045;-72
2022/04/16 19:49:30;;;;;;;16.67;10.73;;;;;;;;;;10435634;28;20067;-70
2022/04/16 19:54:31;;;;;;;14.23;10.23;;;;;;;;;;10431112;28;20028;-75
2022/04/16 19:59:31;;;;;;;15.38;10.45;;;;;;;;;;10444030;28;20032;-76
2022/04/16 20:04:32;;;;;;;16.70;12.27;;;;;;;;;;10466676;28;20029;-73
2022/04/16 20:14:52;;;;;;;13.70;10.15;;;;;;;;;;10448250;28;20412;-72
2022/04/16 20:19:53;;;;;;;13.43;9.60;;;;;;;;;;10447783;28;20041;-76
2022/04/16 20:24:53;;;;;;;15.65;10.43;;;;;;;;;;10448990;28;20380;-71
2022/04/16 20:29:53;;;;;;;13.00;9.82;;;;;;;;;;10446709;28;20032;-72
2022/04/16 20:34:53;;;;;;;14.27;8.77;;;;;;;;;;10439414;28;20033;-73
2022/04/16 20:45:19;;;;;;;13.25;7.43;;;;;;;;;;10444712;28;20299;-71
2022/04/16 20:50:20;;;;;;;11.10;7.50;;;;;;;;;;10427588;28;20895;-76
2022/04/16 20:55:20;;;;;;;10.90;7.57;;;;;;;;;;10448154;28;20103;-72
2022/04/16 21:00:21;;;;;;;13.50;7.80;;;;;;;;;;10427965;28;20679;-77
2022/04/16 21:05:22;;;;;;;12.50;8.70;;;;;;;;;;10428695;28;20127;-73
2022/04/16 21:10:22;;;;;;;9.35;6.90;;;;;;;;;;10428074;28;20439;-70
2022/04/16 21:15:23;;;;;;;11.82;7.32;;;;;;;;;;10444689;28;20074;-75
2022/04/16 21:20:23;;;;;;;9.80;6.80;;;;;;;;;;10450126;28;20032;-71
2022/04/16 21:25:24;;;;;;;12.75;7.45;;;;;;;;;;10449013;28;20637;-75
2022/04/16 21:30:24;;;;;;;10.57;6.70;;;;;;;;;;10455522;28;20033;-71
2022/04/16 21:35:25;;;;;;;11.47;7.50;;;;;;;;;;10467030;28;20025;-72
2022/04/16 21:40:26;;;;;;;14.43;7.38;;;;;;;;;;10455707;28;20287;-71
2022/04/16 21:45:26;;;;;;;10.27;7.22;;;;;;;;;;10466213;28;20053;-71
2022/04/16 21:50:27;;;;;;;11.10;7.82;;;;;;;;;;10459689;28;20025;-72
2022/04/16 21:55:27;;;;;;;10.20;6.33;;;;;;;;;;10456135;28;20028;-72
2022/04/16 22:00:48;;;;;;;12.55;7.10;;;;;;;;;;10457253;28;20132;-71
2022/04/16 22:05:48;;;;;;;12.88;6.63;;;;;;;;;;10460588;28;20051;-71
2022/04/16 22:10:52;;;;;;;11.80;8.63;;;;;;;;;;10450949;28;20531;-71
2022/04/16 22:15:52;;;;;;;10.68;7.60;;;;;;;;;;10458431;28;20078;-71
2022/04/16 22:20:52;;;;;;;11.93;8.30;;;;;;;;;;10454820;28;20089;-71
2022/04/16 22:25:52;;;;;;;15.80;8.80;;;;;;;;;;10453512;28;20017;-71
2022/04/16 22:30:53;;;;;;;13.23;9.32;;;;;;;;;;10451818;28;20017;-70
2022/04/16 22:35:53;;;;;;;16.13;10.10;;;;;;;;;;10453284;28;20032;-71
2022/04/16 22:40:59;;;;;;;11.70;8.43;;;;;;;;;;10434871;28;20030;-71
2022/04/16 22:46:00;;;;;;;14.25;9.07;;;;;;;;;;10451077;28;20336;-72
2022/04/16 22:51:02;;;;;;;13.57;9.90;;;;;;;;;;10465325;28;20035;-71
2022/04/16 22:56:04;;;;;;;13.73;9.57;;;;;;;;;;10455121;28;20218;-71
2022/04/16 23:01:07;;;;;;;16.42;9.43;;;;;;;;;;10455627;28;20033;-77
2022/04/16 23:06:07;;;;;;;20.08;8.77;;;;;;;;;;10462128;28;20054;-70
2022/04/16 23:11:08;;;;;;;17.05;10.30;;;;;;;;;;10437032;28;20123;-70
2022/04/16 23:21:27;;;;;;;15.35;9.02;;;;;;;;;;10448431;28;20021;-74
2022/04/16 23:26:28;;;;;;;17.85;11.50;;;;;;;;;;10431208;28;20025;-75
2022/04/16 23:31:28;;;;;;;12.60;10.40;;;;;;;;;;10430315;28;20039;-69
2022/04/16 23:36:28;;;;;;;16.17;10.43;;;;;;;;;;10430513;28;20480;-73
2022/04/16 23:41:28;;;;;;;19.08;10.02;;;;;;;;;;10430460;28;20484;-70
2022/04/16 23:51:48;;;;;;;18.55;10.25;;;;;;;;;;10447935;28;20092;-71
2022/04/16 23:56:49;;;;;;;18.50;10.35;;;;;;;;;;10429939;28;20408;-69
